Alta, California
Current Conditions -  °F | °C
As of 1:20 AM on Saturday 20 Dec 2014 (Local Time) from KBLU Reporting Station
Light Rain Light Rain  
Wind Chill:   Ceiling: 200
Heat Index:   Visibility: 0.5mi
Dew Point:   Wind: 12mph
Humidity: 93%   Direction: 180°S
Pressure: 30.13"   Gusts: NA
Location:  39.21°N, 120.81°W
Report Text: KBLU 200920Z AUTO 18010KT 1/2SM -RA FG VV002 04/03 A3013 RMK AO2 P0001 T00390028
Loading
Personal Weather Stations






























Interactive Weather Map New forecast layout! Learn more

10-Day Weather Forecast

Advertisements
Track Severe Weather on mobile